createdAt,value
2022-12-28T00:01:13.016Z,3.72
2022-12-28T00:03:39.741Z,4.00
2022-12-28T00:06:07.294Z,3.70
2022-12-28T00:08:34.034Z,3.70
2022-12-28T00:11:08.900Z,4.00
2022-12-28T00:13:37.362Z,3.75
2022-12-28T00:16:13.945Z,3.60
2022-12-28T00:18:40.772Z,4.18
2022-12-28T00:21:07.400Z,4.45
2022-12-28T00:23:34.135Z,3.95
2022-12-28T00:26:08.797Z,3.28
2022-12-28T00:28:35.565Z,3.88
2022-12-28T00:31:02.432Z,4.10
2022-12-28T00:33:29.167Z,3.97
2022-12-28T00:35:57.185Z,3.75
2022-12-28T00:38:24.286Z,3.58
2022-12-28T00:40:50.997Z,3.75
2022-12-28T00:43:17.816Z,3.63
2022-12-28T00:45:45.755Z,3.72
2022-12-28T00:48:12.786Z,3.67
2022-12-28T00:50:40.010Z,3.95
2022-12-28T00:53:07.230Z,4.15
2022-12-28T00:55:34.799Z,3.42
2022-12-28T00:58:02.484Z,3.30
2022-12-28T01:00:29.656Z,3.50
2022-12-28T01:02:56.973Z,3.50
2022-12-28T01:05:24.140Z,3.10
2022-12-28T01:07:51.241Z,3.30
2022-12-28T01:10:18.326Z,3.20
2022-12-28T01:12:45.318Z,3.55
2022-12-28T01:15:13.407Z,3.70
2022-12-28T01:17:40.299Z,3.17
2022-12-28T01:20:08.326Z,3.45
2022-12-28T01:22:35.051Z,3.22
2022-12-28T01:25:01.773Z,3.28
2022-12-28T01:27:28.466Z,3.13
2022-12-28T01:29:55.080Z,2.70
2022-12-28T01:32:21.932Z,2.58
2022-12-28T01:34:48.477Z,2.65
2022-12-28T01:37:15.084Z,2.40
2022-12-28T01:39:41.775Z,2.65
2022-12-28T01:42:16.662Z,2.53
2022-12-28T01:44:46.191Z,2.50
2022-12-28T01:47:22.537Z,2.30
2022-12-28T01:50:10.364Z,2.30
2022-12-28T01:52:40.868Z,2.28
2022-12-28T01:55:15.849Z,2.30
2022-12-28T01:57:47.618Z,2.28
2022-12-28T02:00:16.173Z,2.85
2022-12-28T02:02:46.835Z,2.30
2022-12-28T02:05:14.382Z,2.60
2022-12-28T02:07:47.761Z,2.38
2022-12-28T02:10:41.114Z,2.60
2022-12-28T02:13:03.733Z,2.45
2022-12-28T02:15:30.519Z,2.50
2022-12-28T02:17:57.931Z,2.53
2022-12-28T02:20:34.983Z,2.22
2022-12-28T02:23:28.035Z,2.35
2022-12-28T02:26:39.923Z,2.47
2022-12-28T02:29:25.925Z,2.38
2022-12-28T02:32:06.359Z,2.35
2022-12-28T02:34:41.467Z,2.50
2022-12-28T02:37:17.655Z,2.40
2022-12-28T02:39:53.299Z,2.58
2022-12-28T02:42:21.208Z,2.30
2022-12-28T02:45:06.678Z,2.67
2022-12-28T02:47:52.008Z,2.90
2022-12-28T02:50:18.981Z,2.97
2022-12-28T02:53:30.606Z,2.50
2022-12-28T02:56:10.900Z,2.47
2022-12-28T02:59:15.775Z,2.40
2022-12-28T03:01:54.805Z,2.63
2022-12-28T03:04:56.628Z,2.40
2022-12-28T03:07:57.154Z,2.90
2022-12-28T03:10:33.035Z,2.33
2022-12-28T03:13:33.006Z,2.45
2022-12-28T03:16:05.103Z,2.70
2022-12-28T03:18:51.344Z,2.50
2022-12-28T03:21:37.869Z,2.22
2022-12-28T03:24:24.225Z,2.25
2022-12-28T03:27:10.796Z,2.42
2022-12-28T03:30:00.210Z,2.80
2022-12-28T03:32:27.027Z,2.60
2022-12-28T03:34:54.003Z,2.70
2022-12-28T03:37:39.140Z,2.53
2022-12-28T03:40:29.692Z,2.58
2022-12-28T03:43:19.736Z,3.00
2022-12-28T03:45:47.481Z,2.50
2022-12-28T03:48:15.805Z,2.50
2022-12-28T03:50:44.697Z,3.17
2022-12-28T03:53:11.839Z,2.58
2022-12-28T03:55:38.750Z,3.03
2022-12-28T03:58:06.239Z,3.10
2022-12-28T04:00:33.539Z,3.03
2022-12-28T04:03:00.383Z,3.00
2022-12-28T04:05:27.466Z,3.08
2022-12-28T04:07:54.174Z,3.20
2022-12-28T04:10:20.873Z,3.40
2022-12-28T04:12:47.775Z,3.03
2022-12-28T04:15:14.670Z,3.20
2022-12-28T04:17:41.645Z,3.45
2022-12-28T04:20:09.355Z,3.72
2022-12-28T04:22:36.074Z,3.30
2022-12-28T04:25:03.709Z,3.40
2022-12-28T04:27:30.478Z,3.28
2022-12-28T04:29:57.159Z,3.47
2022-12-28T04:32:23.871Z,3.70
2022-12-28T04:34:50.584Z,3.33
2022-12-28T04:37:17.356Z,3.70
2022-12-28T04:39:55.173Z,3.47
2022-12-28T04:42:25.509Z,3.63
2022-12-28T04:44:52.277Z,3.92
2022-12-28T04:47:19.179Z,3.78
2022-12-28T04:49:45.912Z,3.75
2022-12-28T04:52:12.859Z,4.10
2022-12-28T04:54:39.685Z,3.83
2022-12-28T04:57:07.076Z,3.70
2022-12-28T04:59:34.105Z,4.38
2022-12-28T05:02:01.169Z,3.60
2022-12-28T05:04:28.127Z,3.80
2022-12-28T05:06:54.771Z,3.85
2022-12-28T05:09:21.657Z,4.13
2022-12-28T05:11:48.927Z,3.83
2022-12-28T05:14:16.059Z,3.67
2022-12-28T05:16:43.022Z,3.83
2022-12-28T05:19:09.822Z,3.75
2022-12-28T05:21:36.699Z,3.38
2022-12-28T05:24:03.685Z,3.65
2022-12-28T05:26:30.452Z,3.75
2022-12-28T05:28:59.129Z,3.35
2022-12-28T05:31:26.491Z,3.40
2022-12-28T05:33:54.368Z,3.70
2022-12-28T05:36:23.667Z,3.65
2022-12-28T05:38:51.058Z,3.90
2022-12-28T05:41:23.783Z,3.70
2022-12-28T05:43:50.685Z,3.50
2022-12-28T05:46:24.439Z,3.40
2022-12-28T05:48:51.429Z,3.75
2022-12-28T05:51:20.356Z,3.53
2022-12-28T05:53:47.436Z,3.38
2022-12-28T05:56:16.039Z,3.58
2022-12-28T05:58:43.961Z,3.17
2022-12-28T06:01:16.404Z,3.70
2022-12-28T06:03:44.790Z,3.67
2022-12-28T06:06:14.329Z,3.50
2022-12-28T06:08:42.538Z,3.67
2022-12-28T06:11:12.244Z,3.53
2022-12-28T06:13:39.497Z,4.00
2022-12-28T06:16:18.029Z,3.67
2022-12-28T06:18:45.463Z,3.28
2022-12-28T06:21:14.623Z,3.90
2022-12-28T06:23:42.231Z,3.75
2022-12-28T06:26:09.610Z,3.78
2022-12-28T06:28:40.386Z,3.67
2022-12-28T06:31:15.770Z,3.70
2022-12-28T06:33:43.029Z,3.90
2022-12-28T06:36:20.527Z,4.35
2022-12-28T06:38:49.204Z,3.83
2022-12-28T06:41:17.695Z,4.10
2022-12-28T06:43:45.741Z,4.22
2022-12-28T06:46:13.675Z,3.92
2022-12-28T06:48:40.836Z,4.18
2022-12-28T06:51:12.200Z,3.97
2022-12-28T06:53:39.291Z,4.40
2022-12-28T06:56:11.726Z,4.30
2022-12-28T06:58:38.750Z,3.97
2022-12-28T07:01:07.655Z,4.43
2022-12-28T07:03:34.940Z,4.35
2022-12-28T07:06:02.565Z,4.15
2022-12-28T07:08:29.889Z,4.10
2022-12-28T07:11:02.440Z,4.10
2022-12-28T07:13:29.257Z,4.25
2022-12-28T07:15:55.896Z,4.63
2022-12-28T07:18:22.720Z,4.13
2022-12-28T07:20:49.419Z,3.88
2022-12-28T07:23:16.295Z,3.88
2022-12-28T07:25:43.665Z,4.50
2022-12-28T07:28:10.379Z,4.40
2022-12-28T07:30:37.374Z,4.72
2022-12-28T07:33:04.781Z,4.20
2022-12-28T07:35:31.561Z,4.28
2022-12-28T07:37:58.302Z,3.90
2022-12-28T07:40:25.029Z,3.70
2022-12-28T07:42:51.956Z,4.22
2022-12-28T07:45:18.688Z,4.15
2022-12-28T07:47:45.450Z,4.43
2022-12-28T07:50:12.401Z,4.20
2022-12-28T07:52:39.247Z,4.80
2022-12-28T07:55:06.568Z,4.10
2022-12-28T07:57:34.485Z,4.20
2022-12-28T08:00:01.184Z,4.20
2022-12-28T08:02:28.075Z,4.90
2022-12-28T08:04:54.907Z,4.85
2022-12-28T08:07:21.614Z,4.15
2022-12-28T08:09:48.418Z,3.97
2022-12-28T08:12:15.051Z,3.78
2022-12-28T08:14:42.621Z,3.83
2022-12-28T08:17:09.388Z,3.78
2022-12-28T08:19:36.103Z,3.90
2022-12-28T08:22:02.890Z,3.92
2022-12-28T08:24:29.614Z,3.80
2022-12-28T08:26:56.382Z,3.83
2022-12-28T08:29:23.427Z,3.78
2022-12-28T08:31:50.480Z,3.60
2022-12-28T08:34:20.365Z,3.70
2022-12-28T08:36:47.244Z,4.15
2022-12-28T08:39:14.870Z,4.78
2022-12-28T08:41:41.982Z,4.25
2022-12-28T08:44:08.776Z,3.70
2022-12-28T08:46:36.539Z,3.67
2022-12-28T08:49:04.144Z,3.63
2022-12-28T08:51:33.003Z,3.95
2022-12-28T08:54:00.738Z,3.80
2022-12-28T08:56:30.231Z,3.63
2022-12-28T08:58:57.783Z,3.65
2022-12-28T09:01:27.108Z,3.38
2022-12-28T09:03:56.320Z,3.40
2022-12-28T09:06:31.893Z,3.72
2022-12-28T09:09:07.298Z,3.30
2022-12-28T09:11:39.444Z,3.42
2022-12-28T09:14:09.607Z,3.70
2022-12-28T09:16:37.209Z,3.25
2022-12-28T09:19:05.897Z,3.53
2022-12-28T09:21:35.492Z,3.00
2022-12-28T09:24:02.321Z,3.03
2022-12-28T09:26:32.051Z,3.13
2022-12-28T09:29:01.190Z,3.05
2022-12-28T09:31:30.167Z,3.10
2022-12-28T09:36:49.991Z,2.92
2022-12-28T09:39:19.540Z,2.90
2022-12-28T09:41:58.331Z,2.70
2022-12-28T09:45:04.350Z,3.00
2022-12-28T09:47:47.577Z,3.00
2022-12-28T09:50:28.657Z,2.70
2022-12-28T09:53:24.694Z,2.75
2022-12-28T09:55:54.389Z,3.08
2022-12-28T09:58:21.318Z,3.00
2022-12-28T10:00:50.204Z,2.70
2022-12-28T10:03:32.326Z,3.38
2022-12-28T10:05:59.842Z,2.90
2022-12-28T10:08:28.260Z,2.58
2022-12-28T10:10:57.536Z,2.97
2022-12-28T10:13:53.725Z,2.70
2022-12-28T10:16:19.384Z,3.13
2022-12-28T10:18:47.131Z,3.10
2022-12-28T10:21:19.710Z,2.67
2022-12-28T10:24:29.336Z,3.00
2022-12-28T10:26:35.585Z,2.83
2022-12-28T10:29:02.538Z,3.10
2022-12-28T10:31:37.709Z,2.80
2022-12-28T10:34:18.138Z,2.90
2022-12-28T10:36:45.069Z,2.50
2022-12-28T10:39:24.562Z,2.60
2022-12-28T10:41:51.903Z,2.88
2022-12-28T10:44:40.319Z,2.80
2022-12-28T10:47:18.137Z,2.38
2022-12-28T10:50:18.546Z,2.47
2022-12-28T10:52:38.040Z,2.50
2022-12-28T10:55:31.742Z,2.55
2022-12-28T10:58:30.110Z,2.15
2022-12-28T11:01:05.226Z,2.38
2022-12-28T11:03:38.684Z,2.42
2022-12-28T11:06:19.922Z,2.35
2022-12-28T11:09:20.317Z,2.17
2022-12-28T11:11:48.402Z,1.73
2022-12-28T11:14:30.831Z,1.83
2022-12-28T11:16:57.989Z,2.05
2022-12-28T11:19:25.910Z,1.98
2022-12-28T11:21:53.295Z,1.77
2022-12-28T11:24:21.460Z,2.00
2022-12-28T11:26:50.090Z,2.05
2022-12-28T11:29:18.560Z,2.17
2022-12-28T11:32:07.373Z,2.10
2022-12-28T11:34:34.313Z,1.75
2022-12-28T11:37:01.219Z,2.30
2022-12-28T11:39:32.661Z,1.95
2022-12-28T11:42:37.328Z,2.20
2022-12-28T11:44:49.253Z,2.15
2022-12-28T11:47:36.616Z,2.30
2022-12-28T11:50:35.212Z,1.98
2022-12-28T11:53:02.779Z,1.75
2022-12-28T11:55:56.313Z,2.13
2022-12-28T11:58:29.063Z,2.10
2022-12-28T12:00:57.228Z,1.88
2022-12-28T12:04:06.343Z,1.92
2022-12-28T12:07:30.648Z,2.05
2022-12-28T12:10:35.580Z,2.43
2022-12-28T12:13:23.806Z,2.30
2022-12-28T12:15:51.457Z,1.88
2022-12-28T12:18:23.866Z,1.98
2022-12-28T12:21:03.588Z,1.92
2022-12-28T12:23:55.672Z,2.08
2022-12-28T12:26:59.069Z,1.83
2022-12-28T12:29:37.540Z,1.90
2022-12-28T12:32:07.893Z,1.73
2022-12-28T12:34:42.908Z,1.80
2022-12-28T12:37:37.945Z,1.73
2022-12-28T12:40:31.972Z,1.60
2022-12-28T12:43:22.257Z,1.70
2022-12-28T12:46:00.662Z,1.88
2022-12-28T12:48:51.555Z,1.98
2022-12-28T12:51:33.687Z,2.10
2022-12-28T12:54:23.582Z,1.52
2022-12-28T12:56:55.746Z,2.08
2022-12-28T12:59:41.195Z,2.50
2022-12-28T13:02:59.659Z,1.83
2022-12-28T13:05:28.726Z,1.70
2022-12-28T13:07:58.364Z,2.00
2022-12-28T13:10:45.790Z,1.70
2022-12-28T13:13:36.127Z,1.58
2022-12-28T13:16:05.703Z,1.80
2022-12-28T13:18:47.856Z,2.05
2022-12-28T13:21:20.668Z,1.83
2022-12-28T13:23:55.582Z,1.60
2022-12-28T13:26:30.072Z,2.05
2022-12-28T13:29:02.760Z,2.08
2022-12-28T13:31:37.767Z,1.90
2022-12-28T13:34:14.314Z,2.00
2022-12-28T13:36:59.470Z,1.88
2022-12-28T13:39:33.168Z,1.70
2022-12-28T13:42:14.342Z,1.92
2022-12-28T13:45:02.146Z,2.00
2022-12-28T13:47:33.502Z,1.75
2022-12-28T13:50:07.443Z,1.83
2022-12-28T13:53:12.789Z,1.85
2022-12-28T13:56:01.162Z,1.73
2022-12-28T13:58:32.193Z,2.05
2022-12-28T14:01:00.791Z,1.77
2022-12-28T14:03:27.850Z,2.50
2022-12-28T14:06:00.313Z,2.10
2022-12-28T14:08:28.825Z,2.95
2022-12-28T14:10:55.964Z,2.60
2022-12-28T14:13:23.065Z,2.72
2022-12-28T14:15:50.258Z,2.50
2022-12-28T14:18:17.727Z,1.80
2022-12-28T14:20:52.143Z,2.58
2022-12-28T14:23:29.993Z,2.65
2022-12-28T14:25:58.886Z,1.80
2022-12-28T14:28:46.076Z,2.45
2022-12-28T14:31:14.795Z,2.40
2022-12-28T14:34:02.260Z,2.13
2022-12-28T14:36:43.194Z,1.80
2022-12-28T14:39:32.692Z,1.73
2022-12-28T14:42:05.692Z,1.70
2022-12-28T14:44:37.600Z,1.58
2022-12-28T14:47:56.777Z,1.90
2022-12-28T14:50:26.137Z,1.98
2022-12-28T14:53:09.934Z,1.95
2022-12-28T14:55:57.043Z,2.00
2022-12-28T14:58:27.067Z,1.70
2022-12-28T15:01:06.332Z,1.90
2022-12-28T15:03:58.165Z,1.75
2022-12-28T15:06:30.088Z,2.00
2022-12-28T15:08:59.094Z,2.10
2022-12-28T15:11:27.884Z,1.73
2022-12-28T15:13:54.765Z,1.80
2022-12-28T15:16:25.530Z,2.00
2022-12-28T15:18:53.562Z,2.13
2022-12-28T15:21:22.832Z,1.85
2022-12-28T15:23:53.730Z,1.95
2022-12-28T15:26:23.846Z,2.17
2022-12-28T15:28:51.187Z,2.30
2022-12-28T15:31:20.117Z,2.20
2022-12-28T15:33:47.791Z,2.30
2022-12-28T15:36:17.949Z,2.65
2022-12-28T15:38:46.627Z,2.40
2022-12-28T15:41:32.160Z,3.30
2022-12-28T15:44:02.128Z,2.65
2022-12-28T15:46:28.928Z,3.00
2022-12-28T15:48:55.741Z,2.72
2022-12-28T15:51:22.614Z,2.42
2022-12-28T15:53:49.658Z,2.55
2022-12-28T15:56:24.537Z,2.70
2022-12-28T15:58:56.036Z,2.17
2022-12-28T16:01:27.208Z,2.45
2022-12-28T16:03:55.618Z,2.42
2022-12-28T16:06:23.540Z,2.20
2022-12-28T16:08:56.479Z,2.08
2022-12-28T16:11:24.447Z,2.03
2022-12-28T16:13:56.543Z,2.30
2022-12-28T16:16:24.477Z,2.28
2022-12-28T16:18:54.820Z,2.40
2022-12-28T16:21:21.758Z,2.40
2022-12-28T16:23:48.617Z,2.30
2022-12-28T16:26:15.589Z,2.42
2022-12-28T16:28:42.326Z,2.30
2022-12-28T16:31:21.297Z,4.00
2022-12-28T16:33:48.115Z,7.85
2022-12-28T16:36:16.658Z,4.72
2022-12-28T16:38:43.360Z,3.70
2022-12-28T16:41:10.337Z,3.40
2022-12-28T16:43:37.360Z,2.58
2022-12-28T16:46:08.584Z,2.50
2022-12-28T16:48:35.748Z,3.05
2022-12-28T16:51:02.520Z,2.70
2022-12-28T16:53:29.982Z,3.13
2022-12-28T16:56:00.280Z,2.72
2022-12-28T16:58:27.903Z,2.75
2022-12-28T17:00:54.700Z,2.72
2022-12-28T17:03:21.469Z,2.65
2022-12-28T17:05:52.214Z,2.80
2022-12-28T17:08:19.456Z,2.20
2022-12-28T17:10:46.394Z,18.08
2022-12-28T17:13:13.230Z,3.20
2022-12-28T17:15:41.272Z,2.38
2022-12-28T17:18:08.542Z,3.45
2022-12-28T17:20:38.830Z,2.75
2022-12-28T17:23:06.656Z,5.30
2022-12-28T17:25:37.268Z,3.55
2022-12-28T17:28:04.303Z,1.90
2022-12-28T17:30:31.200Z,2.20
2022-12-28T17:32:58.357Z,2.17
2022-12-28T17:35:25.183Z,2.10
2022-12-28T17:37:52.033Z,2.10
2022-12-28T17:40:21.187Z,1.80
2022-12-28T17:42:48.191Z,1.90
2022-12-28T17:45:15.107Z,2.28
2022-12-28T17:47:41.735Z,1.75
2022-12-28T17:50:09.390Z,2.38
2022-12-28T17:52:36.241Z,1.65
2022-12-28T17:55:04.210Z,2.25
2022-12-28T17:57:38.456Z,1.60
2022-12-28T18:00:07.300Z,1.60
2022-12-28T18:02:34.187Z,1.88
2022-12-28T18:05:01.105Z,2.00
2022-12-28T18:07:27.789Z,1.58
2022-12-28T18:09:54.615Z,1.73
2022-12-28T18:12:21.564Z,2.15
2022-12-28T18:14:48.316Z,1.77
2022-12-28T18:17:17.789Z,1.70
2022-12-28T18:19:50.563Z,2.10
2022-12-28T18:22:17.223Z,1.60
2022-12-28T18:24:44.059Z,1.30
2022-12-28T18:27:10.744Z,1.45
2022-12-28T18:29:37.826Z,1.30
2022-12-28T18:32:04.751Z,3.00
2022-12-28T18:34:31.533Z,3.92
2022-12-28T18:36:58.719Z,5.60
2022-12-28T18:39:25.493Z,3.50
2022-12-28T18:41:52.207Z,4.30
2022-12-28T18:44:19.148Z,2.50
2022-12-28T18:46:45.884Z,2.15
2022-12-28T18:49:12.799Z,1.20
2022-12-28T18:51:39.553Z,1.20
2022-12-28T18:54:06.320Z,1.35
2022-12-28T18:56:33.033Z,1.40
2022-12-28T18:58:59.789Z,1.20
2022-12-28T19:04:16.233Z,1.23
2022-12-28T19:06:43.395Z,1.20
2022-12-28T19:09:10.926Z,1.17
2022-12-28T19:11:39.037Z,0.82
2022-12-28T19:14:07.712Z,1.20
2022-12-28T19:16:34.965Z,1.33
2022-12-28T19:19:01.764Z,1.20
2022-12-28T19:21:33.733Z,0.90
2022-12-28T19:24:10.761Z,1.20
2022-12-28T19:26:37.489Z,1.13
2022-12-28T19:29:05.177Z,2.75
2022-12-28T19:31:34.060Z,1.48
2022-12-28T19:34:01.131Z,1.60
2022-12-28T19:36:31.885Z,1.30
2022-12-28T19:38:58.640Z,1.35
2022-12-28T19:41:25.437Z,1.20
2022-12-28T19:43:52.274Z,1.52
2022-12-28T19:46:35.597Z,1.40
2022-12-28T19:49:04.217Z,1.85
2022-12-28T19:51:32.351Z,1.52
2022-12-28T19:54:00.618Z,1.40
2022-12-28T19:56:27.470Z,1.25
2022-12-28T19:58:58.076Z,1.40
2022-12-28T20:01:30.354Z,1.20
2022-12-28T20:03:57.484Z,1.20
2022-12-28T20:06:27.420Z,1.50
2022-12-28T20:08:56.861Z,1.50
2022-12-28T20:11:23.647Z,1.48
2022-12-28T20:14:04.461Z,1.40
2022-12-28T20:16:33.488Z,1.48
2022-12-28T20:19:01.973Z,1.30
2022-12-28T20:21:29.052Z,1.40
2022-12-28T20:23:55.887Z,1.48
2022-12-28T20:26:25.053Z,1.40
2022-12-28T20:28:52.155Z,1.40
2022-12-28T20:31:19.701Z,1.77
2022-12-28T20:33:46.817Z,1.65
2022-12-28T20:36:16.226Z,1.50
2022-12-28T20:38:43.637Z,1.30
2022-12-28T20:41:38.894Z,1.20
2022-12-28T20:44:10.259Z,1.50
2022-12-28T20:46:38.092Z,1.50
2022-12-28T20:49:05.715Z,1.35
2022-12-28T20:51:32.530Z,1.60
2022-12-28T20:53:59.517Z,1.45
2022-12-28T20:56:26.263Z,1.80
2022-12-28T20:58:53.311Z,1.70
2022-12-28T21:01:20.560Z,1.50
2022-12-28T21:03:47.820Z,1.40
2022-12-28T21:06:14.826Z,1.73
2022-12-28T21:08:41.491Z,1.50
2022-12-28T21:11:08.460Z,1.50
2022-12-28T21:13:38.093Z,1.48
2022-12-28T21:16:08.276Z,1.30
2022-12-28T21:18:35.862Z,1.30
2022-12-28T21:21:03.210Z,1.50
2022-12-28T21:23:30.715Z,1.20
2022-12-28T21:26:02.531Z,1.30
2022-12-28T21:28:29.793Z,1.08
2022-12-28T21:31:01.600Z,1.30
2022-12-28T21:33:28.261Z,1.30
2022-12-28T21:36:05.860Z,1.23
2022-12-28T21:38:33.349Z,1.45
2022-12-28T21:41:02.009Z,3.42
2022-12-28T21:43:30.253Z,1.70
2022-12-28T21:46:02.738Z,1.58
2022-12-28T21:48:33.922Z,1.73
2022-12-28T21:51:31.543Z,1.40
2022-12-28T21:53:59.562Z,1.48
2022-12-28T21:56:26.249Z,1.30
2022-12-28T21:58:53.196Z,1.55
2022-12-28T22:01:39.310Z,1.52
2022-12-28T22:04:26.969Z,1.50
2022-12-28T22:06:54.103Z,1.48
2022-12-28T22:09:39.501Z,1.40
2022-12-28T22:12:24.984Z,1.40
2022-12-28T22:15:12.787Z,1.70
2022-12-28T22:17:39.590Z,1.52
2022-12-28T22:20:10.072Z,1.98
2022-12-28T22:22:36.873Z,1.75
2022-12-28T22:25:03.881Z,1.73
2022-12-28T22:27:34.079Z,1.90
2022-12-28T22:30:00.838Z,1.52
2022-12-28T22:32:27.972Z,1.80
2022-12-28T22:34:54.729Z,1.95
2022-12-28T22:37:21.456Z,1.52
2022-12-28T22:39:48.406Z,1.92
2022-12-28T22:42:15.991Z,1.73
2022-12-28T22:44:42.910Z,1.90
2022-12-28T22:47:09.694Z,1.90
2022-12-28T22:49:36.414Z,1.80
2022-12-28T22:52:03.491Z,2.08
2022-12-28T22:54:30.660Z,1.60
2022-12-28T22:56:57.336Z,2.00
2022-12-28T22:59:24.163Z,1.90
2022-12-28T23:01:52.928Z,2.15
2022-12-28T23:04:20.315Z,2.10
2022-12-28T23:06:47.158Z,1.90
2022-12-28T23:09:14.172Z,1.88
2022-12-28T23:11:41.032Z,1.95
2022-12-28T23:14:33.112Z,1.92
2022-12-28T23:17:00.575Z,2.10
2022-12-28T23:19:46.651Z,1.60
2022-12-28T23:22:35.966Z,1.90
2022-12-28T23:25:22.923Z,2.10
2022-12-28T23:27:49.829Z,1.73
2022-12-28T23:30:19.692Z,1.90
2022-12-28T23:32:51.289Z,1.90
2022-12-28T23:35:20.108Z,1.52
2022-12-28T23:37:46.957Z,1.80
2022-12-28T23:40:15.897Z,1.63
2022-12-28T23:42:43.772Z,1.95
2022-12-28T23:45:14.218Z,2.10
2022-12-28T23:47:42.176Z,1.70
2022-12-28T23:50:09.745Z,1.92
2022-12-28T23:52:36.775Z,2.13
2022-12-28T23:55:03.850Z,2.30
2022-12-28T23:57:32.020Z,2.45
2022-12-28T23:59:58.829Z,2.30
